Back to Top
Banner_Quays_at_Mast_2020.jpeg
previous arrow
next arrow

Port Arrivals Report (AIS)

This report is generated from collected AIS (Automated Identification System) signals from vessels entering port.

IMO MMSI Class Flag Vessel Name Vessel type Nav Status Destination Call Sign Latitude Longitude Speed (kts) Course (T) Draught (m) LOA (m) Beam (m) Timestamp
0 250000588 B IE YASEMIN SAILING. - EI7685 51.6878 -8.49893 6.2 356.6 0 10 3 2026-08-18 17:36:08
0 250014126 B IE BISCUIT TIN SAILING. - EIA2591 51.6886 -8.4999 6 349.5 0 10 3 2026-08-18 17:33:47
0 235026512 B GB KATE Pleasure craft - MHWW6 51.6885 -8.49888 4.1 344.1 0 25 7 2026-08-18 16:41:51
0 250005343 B IE ILEN PASSENGER. - EIUO2 51.6873 -8.49871 3.9 348.8 0 15 3 2026-08-18 16:41:51
0 250014474 B IE SAMI SAILING. - 51.6879 -8.49977 5.8 357.1 0 10 3 2026-08-18 15:41:48
0 368301490 B US DONA MARINITA SAILING. - WDN6693 51.6878 -8.49973 5.2 353.3 0 12 4 2026-08-18 14:43:36
0 250014182 A IE LADY CATHERINE PASSENGER. - EIA2647 51.6873 -8.49852 8.5 338.7 0 0 0 2026-08-18 13:34:39
0 235062552 B GB MAYBE Pleasure craft - 2ASG3 51.6879 -8.49984 4.6 357.7 0 28 6 2026-08-17 21:41:43
0 250003859 B IE SENAN SAILING. - EIRF4 51.6884 -8.5007 5.5 348.7 0 14 4 2026-08-17 15:30:32
0 250001825 B IE OCEAN RANGER Pleasure craft - EIHP5 51.6894 -8.49987 15.5 345.5 0 12 5 2026-08-17 14:38:48
0 228323990 B FR PETILLANTE SAILING. - FAM4479 51.6873 -8.49707 4.7 13.9 0 16 5 2026-08-17 14:22:28
0 250014182 A IE LADY CATHERINE PASSENGER. - EIA2647 51.6881 -8.49963 9.1 344.7 0 0 0 2026-08-17 13:56:08
0 230051840 B FI S/Y AAVA SAILING. - OJ8502 51.6888 -8.50066 5.4 351.4 0 0 0 2026-08-17 12:45:36
0 228044790 B FR ALINOHE SAILING. - FAH6919 51.6872 -8.49946 3.5 6.4 0 14 4 2026-08-17 12:30:12
0 250005766 B IE EMMA LOU GILLNETS FISHING. - EIWB6 51.6894 -8.49756 6.1 354 0 11 6 2026-08-17 09:16:47
0 250014774 B IE HARPY DREDGING / UNDERWATER Ops. - EIA3240 51.692 -8.52738 5.6 67.6 0 13 4 2026-08-16 17:22:14
0 250014182 A IE LADY CATHERINE PASSENGER. - EIA2647 51.689 -8.49991 9.8 352.2 0 0 0 2026-08-16 16:43:54
0 250015016 B IE THE SHINDIG Pleasure craft - EIA3482 51.6915 -8.50015 18.3 337.4 0 13 4 2026-08-16 15:17:04
0 232022902 B GB TARA SAILING. - MFOE6) 51.688 -8.5005 3.2 343.1 0 11 4 2026-08-16 14:49:16
0 227233910 B FR SKOL LOUARN SAILING. - FAB7448 51.6871 -8.49889 5.3 355.9 0 0 0 2026-08-16 14:30:41